Time;durP1;ratioP1;P1;durP2;ratioP2;P2;SDS_P1;SDS_P2;PMS_P1;PMS_P2;Temp;Humidity;BMP_temperature;BMP_pressure;BME280_temperature;BME280_humidity;BME280_pressure;Samples;Min_cycle;Max_cycle;Signal;HPM_P1;HPM_P2
2023/05/11 00:01:52;;;;;;;10.32;4.25;;;11.10;99.90;;;;;;5036672;28;20060;-74
2023/05/11 00:04:18;;;;;;;11.13;3.83;;;11.00;99.90;;;;;;5036661;28;20107;-74
2023/05/11 00:06:43;;;;;;;11.27;3.58;;;11.00;99.90;;;;;;5036621;28;20025;-74
2023/05/11 00:09:10;;;;;;;14.65;4.90;;;11.00;99.90;;;;;;5036973;28;20029;-75
2023/05/11 00:11:36;;;;;;;11.80;3.58;;;11.00;99.90;;;;;;5036665;28;21302;-73
2023/05/11 00:14:02;;;;;;;13.23;5.03;;;11.10;99.90;;;;;;5036454;28;20028;-74
2023/05/11 00:16:27;;;;;;;12.55;4.28;;;11.10;99.90;;;;;;5036621;28;20685;-74
2023/05/11 00:18:53;;;;;;;11.35;4.28;;;11.10;99.90;;;;;;5036217;28;20052;-73
2023/05/11 00:21:19;;;;;;;9.20;4.22;;;11.10;99.90;;;;;;5036683;28;20048;-74
2023/05/11 00:23:45;;;;;;;8.38;3.50;;;11.10;99.90;;;;;;5036472;28;20053;-73
2023/05/11 00:26:10;;;;;;;14.68;4.88;;;11.10;99.90;;;;;;5035493;28;20493;-74
2023/05/11 00:28:36;;;;;;;16.10;3.30;;;11.10;99.90;;;;;;5038943;28;20026;-74
2023/05/11 00:31:01;;;;;;;14.45;3.78;;;11.10;99.90;;;;;;5040537;28;20024;-74
2023/05/11 00:33:27;;;;;;;11.45;3.80;;;11.10;99.90;;;;;;5038704;28;20036;-74
2023/05/11 00:35:53;;;;;;;12.75;3.80;;;11.10;99.90;;;;;;5040420;28;20021;-74
2023/05/11 00:38:18;;;;;;;16.88;4.00;;;11.10;99.90;;;;;;5038895;28;20021;-74
2023/05/11 00:40:44;;;;;;;12.52;4.20;;;11.10;99.90;;;;;;5040386;28;20032;-73
2023/05/11 00:43:10;;;;;;;13.30;4.93;;;11.10;99.90;;;;;;5040054;28;20029;-74
2023/05/11 00:45:36;;;;;;;12.10;4.28;;;11.10;99.90;;;;;;5040051;28;20021;-73
2023/05/11 00:48:02;;;;;;;12.77;3.83;;;11.10;99.90;;;;;;5039760;28;20021;-73
2023/05/11 00:50:28;;;;;;;11.48;3.90;;;11.00;99.90;;;;;;5040200;28;20033;-73
2023/05/11 00:52:55;;;;;;;12.15;5.38;;;11.00;99.90;;;;;;5039758;28;20033;-73
2023/05/11 00:55:21;;;;;;;9.48;4.60;;;10.90;99.90;;;;;;5040192;28;20022;-73
2023/05/11 00:57:47;;;;;;;9.82;4.90;;;10.90;99.90;;;;;;5039795;28;20032;-73
2023/05/11 01:00:13;;;;;;;15.90;4.57;;;10.90;99.90;;;;;;5039806;28;20025;-73
2023/05/11 01:02:40;;;;;;;10.93;4.30;;;10.90;99.90;;;;;;5039705;28;20103;-73
2023/05/11 01:05:06;;;;;;;12.98;4.40;;;10.90;99.90;;;;;;5039899;28;20108;-73
2023/05/11 01:07:39;;;;;;;12.63;4.15;;;10.90;99.90;;;;;;5038667;28;20033;-73
2023/05/11 01:10:31;;;;;;;14.77;6.28;;;10.90;99.90;;;;;;5045180;28;20120;-74
2023/05/11 01:13:25;;;;;;;14.68;4.50;;;10.80;99.90;;;;;;5038938;28;20017;-73
2023/05/11 01:15:55;;;;;;;13.23;4.53;;;10.80;99.90;;;;;;5041705;28;20018;-73
2023/05/11 01:18:38;;;;;;;13.43;4.80;;;10.80;99.90;;;;;;5039418;28;20084;-73
2023/05/11 01:21:05;;;;;;;11.48;4.28;;;10.80;99.90;;;;;;5038185;28;20048;-74
2023/05/11 01:23:49;;;;;;;16.02;4.65;;;10.80;99.90;;;;;;5039827;28;20060;-73
2023/05/11 01:26:30;;;;;;;16.17;4.70;;;10.80;99.90;;;;;;5032404;28;20027;-74
2023/05/11 01:29:28;;;;;;;15.73;4.25;;;10.80;99.90;;;;;;5035490;28;20080;-75
2023/05/11 01:31:55;;;;;;;10.57;4.85;;;10.80;99.90;;;;;;5037822;28;20049;-74
2023/05/11 01:34:29;;;;;;;16.65;4.78;;;10.80;99.90;;;;;;5039275;28;20022;-74
2023/05/11 01:36:58;;;;;;;15.15;5.15;;;10.80;99.90;;;;;;5040968;28;20021;-73
2023/05/11 01:39:34;;;;;;;15.00;4.90;;;10.90;99.90;;;;;;5038146;28;20105;-73
2023/05/11 01:42:07;;;;;;;19.73;5.57;;;10.80;99.90;;;;;;5038881;28;20033;-73
2023/05/11 01:44:34;;;;;;;18.98;4.90;;;10.80;99.90;;;;;;5038894;28;20025;-74
2023/05/11 01:47:01;;;;;;;26.02;6.57;;;10.80;99.90;;;;;;5038916;28;20017;-73
2023/05/11 01:49:31;;;;;;;19.63;4.47;;;10.80;99.90;;;;;;5038846;28;20513;-74
2023/05/11 01:51:59;;;;;;;28.13;7.80;;;10.80;99.90;;;;;;5029611;28;20026;-73
2023/05/11 01:54:27;;;;;;;22.15;4.85;;;10.80;99.90;;;;;;5037426;28;20375;-73
2023/05/11 01:56:55;;;;;;;16.55;4.15;;;10.80;99.90;;;;;;5037677;28;20022;-74
2023/05/11 01:59:23;;;;;;;13.20;4.38;;;10.80;99.90;;;;;;5038385;28;20097;-74
2023/05/11 02:01:49;;;;;;;14.02;5.13;;;10.80;99.90;;;;;;5038861;28;20089;-73
2023/05/11 02:04:17;;;;;;;17.50;5.30;;;10.80;99.90;;;;;;5038440;28;20056;-74
2023/05/11 02:06:45;;;;;;;11.77;4.68;;;10.70;99.90;;;;;;5037483;28;20029;-73
2023/05/11 02:09:15;;;;;;;14.05;4.30;;;10.70;99.90;;;;;;5037472;28;20466;-73
2023/05/11 02:11:42;;;;;;;18.63;5.10;;;10.70;99.90;;;;;;5038621;28;20067;-73
2023/05/11 02:14:10;;;;;;;11.18;4.63;;;10.70;99.90;;;;;;5038044;28;20092;-74
2023/05/11 02:16:37;;;;;;;15.07;3.95;;;10.60;99.90;;;;;;5037191;28;20030;-74
2023/05/11 02:19:06;;;;;;;15.25;6.20;;;10.60;99.90;;;;;;5038124;28;20037;-73
2023/05/11 02:21:32;;;;;;;13.23;4.70;;;10.60;99.90;;;;;;5038562;28;20029;-73
2023/05/11 02:24:01;;;;;;;13.55;4.03;;;10.50;99.90;;;;;;5038224;28;20013;-74
2023/05/11 02:26:27;;;;;;;18.25;5.32;;;10.50;99.90;;;;;;5036866;28;20081;-74
2023/05/11 02:28:52;;;;;;;17.55;5.03;;;10.50;99.90;;;;;;5036672;28;20075;-74
2023/05/11 02:31:24;;;;;;;16.08;4.88;;;10.50;99.90;;;;;;5038195;28;20025;-74
2023/05/11 02:33:51;;;;;;;12.48;4.22;;;10.50;99.90;;;;;;5036734;28;20083;-73
2023/05/11 02:36:21;;;;;;;13.98;5.75;;;10.50;99.90;;;;;;5038031;28;20454;-74
2023/05/11 02:38:49;;;;;;;10.73;4.07;;;10.50;99.90;;;;;;5036612;28;20022;-74
2023/05/11 02:41:20;;;;;;;22.98;4.97;;;10.50;99.90;;;;;;5036558;28;20029;-73
2023/05/11 02:43:50;;;;;;;12.10;5.30;;;10.50;99.90;;;;;;5036518;28;20112;-74
2023/05/11 02:46:19;;;;;;;12.45;4.45;;;10.50;99.90;;;;;;5037814;28;20045;-74
2023/05/11 02:48:51;;;;;;;17.33;4.88;;;10.50;99.90;;;;;;5037819;28;20076;-74
2023/05/11 02:51:21;;;;;;;14.43;4.95;;;10.40;99.90;;;;;;5037442;28;20494;-74
2023/05/11 02:53:48;;;;;;;15.10;4.93;;;10.40;99.90;;;;;;5037705;28;20022;-74
2023/05/11 02:56:15;;;;;;;13.77;5.57;;;10.40;99.90;;;;;;5036623;28;20033;-74
2023/05/11 02:58:41;;;;;;;14.98;4.40;;;10.30;99.90;;;;;;5037312;28;20024;-74
2023/05/11 03:01:07;;;;;;;14.88;4.75;;;10.40;99.90;;;;;;5037207;28;20079;-74
2023/05/11 03:03:33;;;;;;;17.95;4.68;;;10.30;99.90;;;;;;5037240;28;20029;-74
2023/05/11 03:05:58;;;;;;;17.55;5.35;;;10.30;99.90;;;;;;5036965;28;20025;-74
2023/05/11 03:08:24;;;;;;;10.35;4.72;;;10.30;99.90;;;;;;5036900;28;20114;-74
2023/05/11 03:10:51;;;;;;;20.23;5.05;;;10.30;99.90;;;;;;5036291;28;20029;-74
2023/05/11 03:13:19;;;;;;;15.70;4.28;;;10.20;99.90;;;;;;5036829;28;20047;-75
2023/05/11 03:15:45;;;;;;;16.23;4.82;;;10.20;99.90;;;;;;5037410;28;20067;-74
2023/05/11 03:18:11;;;;;;;15.48;5.18;;;10.20;99.90;;;;;;5035813;28;20045;-74
2023/05/11 03:20:40;;;;;;;19.52;4.55;;;10.10;99.90;;;;;;5025550;28;20026;-73
2023/05/11 03:23:06;;;;;;;23.17;4.85;;;10.20;99.90;;;;;;5037151;28;20064;-73
2023/05/11 03:25:32;;;;;;;12.43;4.03;;;10.20;99.90;;;;;;5037583;28;20034;-74
2023/05/11 03:27:59;;;;;;;6.35;4.07;;;10.20;99.90;;;;;;5035777;28;20021;-73
2023/05/11 03:30:27;;;;;;;10.90;5.20;;;10.10;99.90;;;;;;5036972;28;20048;-73
2023/05/11 03:32:52;;;;;;;10.70;4.90;;;10.10;99.90;;;;;;5035842;28;20108;-73
2023/05/11 03:35:18;;;;;;;13.63;4.50;;;10.10;99.90;;;;;;5037093;28;20049;-74
2023/05/11 03:37:46;;;;;;;15.57;4.38;;;10.10;99.90;;;;;;5037012;28;20032;-74
2023/05/11 03:40:13;;;;;;;16.80;4.65;;;10.10;99.90;;;;;;5037135;28;20108;-74
2023/05/11 03:42:41;;;;;;;14.80;4.85;;;10.10;99.90;;;;;;5036961;28;20507;-74
2023/05/11 03:45:08;;;;;;;13.60;4.63;;;10.00;99.90;;;;;;5035514;28;20116;-73
2023/05/11 03:47:37;;;;;;;16.63;5.18;;;10.00;99.90;;;;;;5035488;28;20665;-74
2023/05/11 03:50:04;;;;;;;15.95;5.70;;;10.00;99.90;;;;;;5036874;28;20055;-74
2023/05/11 03:52:30;;;;;;;12.50;5.13;;;10.00;99.90;;;;;;5035541;28;20101;-74
2023/05/11 03:54:56;;;;;;;17.15;5.10;;;10.00;99.90;;;;;;5037002;28;20022;-73
2023/05/11 03:57:24;;;;;;;10.45;5.03;;;9.90;99.90;;;;;;5036723;28;20067;-74
2023/05/11 03:59:50;;;;;;;7.30;3.67;;;9.90;99.90;;;;;;5036625;28;20025;-75
2023/05/11 04:02:16;;;;;;;18.55;5.82;;;9.90;99.90;;;;;;5033729;28;20123;-75
2023/05/11 04:04:41;;;;;;;16.88;4.82;;;9.90;99.90;;;;;;5040926;28;20080;-74
2023/05/11 04:07:07;;;;;;;13.70;5.28;;;9.90;99.90;;;;;;5040996;28;20092;-74
2023/05/11 04:09:33;;;;;;;15.80;5.07;;;9.80;99.90;;;;;;5040958;28;20083;-74
2023/05/11 04:11:58;;;;;;;10.07;4.35;;;9.80;99.90;;;;;;5040689;28;20017;-74
2023/05/11 04:14:24;;;;;;;13.88;4.78;;;9.80;99.90;;;;;;5040631;28;20071;-74
2023/05/11 04:16:50;;;;;;;15.48;4.82;;;9.80;99.90;;;;;;5039001;28;20045;-75
2023/05/11 04:19:15;;;;;;;13.65;4.97;;;9.70;99.90;;;;;;5039406;28;20036;-74
2023/05/11 04:21:41;;;;;;;16.38;4.93;;;9.70;99.90;;;;;;5039356;28;20017;-74
2023/05/11 04:24:07;;;;;;;14.98;4.85;;;9.70;99.90;;;;;;5039591;28;20086;-74
2023/05/11 04:26:33;;;;;;;10.60;3.85;;;9.70;99.90;;;;;;5039058;28;20029;-74
2023/05/11 04:28:58;;;;;;;15.75;5.70;;;9.80;99.90;;;;;;5039015;28;20032;-73
2023/05/11 04:31:24;;;;;;;14.00;4.95;;;9.80;99.90;;;;;;5040439;28;20091;-74
2023/05/11 04:33:50;;;;;;;13.27;4.13;;;9.90;99.90;;;;;;5040459;28;20053;-73
2023/05/11 04:36:15;;;;;;;13.82;4.03;;;9.90;99.90;;;;;;5040299;28;20032;-74
2023/05/11 04:38:41;;;;;;;19.77;4.35;;;10.00;99.90;;;;;;5040496;28;20029;-74
2023/05/11 04:41:07;;;;;;;12.20;4.15;;;10.00;99.90;;;;;;5039172;28;20025;-73
2023/05/11 04:43:34;;;;;;;10.90;4.43;;;10.00;99.90;;;;;;5039360;28;20026;-74
2023/05/11 04:45:59;;;;;;;15.50;5.43;;;10.10;99.90;;;;;;5040144;28;20036;-73
2023/05/11 04:48:25;;;;;;;10.80;4.50;;;10.10;99.90;;;;;;5040164;28;20029;-73
2023/05/11 04:50:53;;;;;;;15.15;4.22;;;10.20;99.90;;;;;;5038730;28;20116;-73
2023/05/11 04:53:19;;;;;;;16.08;6.15;;;10.20;99.90;;;;;;5040055;28;20018;-73
2023/05/11 04:55:44;;;;;;;10.70;4.20;;;10.20;99.90;;;;;;5038567;28;20561;-74
2023/05/11 04:58:10;;;;;;;12.88;4.72;;;10.10;99.90;;;;;;5039778;28;20144;-73
2023/05/11 05:00:36;;;;;;;13.68;4.20;;;10.10;99.90;;;;;;5036317;28;20053;-73
2023/05/11 05:03:02;;;;;;;11.50;4.32;;;10.10;99.90;;;;;;5039887;28;20105;-75
2023/05/11 05:05:28;;;;;;;7.25;4.05;;;10.10;99.90;;;;;;5039749;28;20069;-74
2023/05/11 05:07:54;;;;;;;9.93;4.13;;;10.10;99.90;;;;;;5039874;28;20022;-73
2023/05/11 05:10:20;;;;;;;7.30;3.88;;;10.10;99.90;;;;;;5039618;28;20037;-74
2023/05/11 05:12:46;;;;;;;13.20;3.72;;;10.20;99.90;;;;;;5039771;28;20025;-73
2023/05/11 05:15:12;;;;;;;8.52;3.83;;;10.30;99.90;;;;;;5037914;28;20108;-73
2023/05/11 05:17:38;;;;;;;8.45;3.85;;;10.30;99.90;;;;;;5039619;28;20128;-73
2023/05/11 05:20:05;;;;;;;10.52;4.50;;;10.40;99.90;;;;;;5039262;28;20033;-74
2023/05/11 05:22:31;;;;;;;7.72;3.72;;;10.40;99.90;;;;;;5038480;28;20026;-74
2023/05/11 05:24:57;;;;;;;10.88;4.35;;;10.50;99.90;;;;;;5039368;28;20049;-73
2023/05/11 05:27:23;;;;;;;13.70;3.78;;;10.50;99.90;;;;;;5038198;28;20029;-74
2023/05/11 05:29:49;;;;;;;12.15;4.00;;;10.60;99.90;;;;;;5038899;28;20076;-73
2023/05/11 05:32:16;;;;;;;10.32;3.28;;;10.70;99.90;;;;;;5039453;28;20017;-73
2023/05/11 05:34:42;;;;;;;12.75;3.58;;;10.80;99.90;;;;;;5038932;28;20018;-73
2023/05/11 05:37:08;;;;;;;8.93;3.80;;;10.90;99.90;;;;;;5039241;28;20014;-73
2023/05/11 05:39:34;;;;;;;11.57;3.60;;;11.00;99.90;;;;;;5039042;28;20105;-74
2023/05/11 05:42:00;;;;;;;13.95;3.67;;;11.10;99.90;;;;;;5039077;28;20501;-74
2023/05/11 05:44:25;;;;;;;13.57;4.70;;;11.20;99.90;;;;;;5038942;28;20030;-73
2023/05/11 05:46:51;;;;;;;11.75;3.50;;;11.20;99.90;;;;;;5037742;28;20029;-73
2023/05/11 05:49:17;;;;;;;12.20;3.70;;;11.30;99.90;;;;;;5038711;28;20021;-73
2023/05/11 05:51:42;;;;;;;5.00;2.80;;;11.30;99.90;;;;;;5039010;28;20105;-74
2023/05/11 05:54:09;;;;;;;11.18;3.92;;;11.40;99.90;;;;;;5038793;28;20162;-73
2023/05/11 05:56:35;;;;;;;13.25;4.00;;;11.40;99.90;;;;;;5037941;28;20025;-74
2023/05/11 05:59:01;;;;;;;13.23;3.65;;;11.40;99.90;;;;;;5038459;28;20021;-74
2023/05/11 06:01:27;;;;;;;4.80;3.20;;;11.50;99.90;;;;;;5038766;28;20033;-73
2023/05/11 06:03:53;;;;;;;12.90;4.00;;;11.60;99.90;;;;;;5038538;28;20028;-72
2023/05/11 06:06:19;;;;;;;12.95;3.15;;;11.60;99.90;;;;;;5039010;28;20024;-73
2023/05/11 06:08:45;;;;;;;9.85;3.53;;;11.60;99.90;;;;;;5038530;28;20053;-73
2023/05/11 06:11:11;;;;;;;8.35;3.22;;;11.60;99.90;;;;;;5038681;28;20022;-73
2023/05/11 06:13:36;;;;;;;6.57;3.45;;;11.70;99.90;;;;;;5036827;28;20029;-73
2023/05/11 06:16:02;;;;;;;6.32;2.88;;;11.70;99.90;;;;;;5038581;28;20028;-73
2023/05/11 06:18:28;;;;;;;10.88;3.20;;;11.70;99.90;;;;;;5036853;28;20061;-73
2023/05/11 06:20:54;;;;;;;11.20;3.00;;;11.70;99.90;;;;;;5038508;28;20033;-74
2023/05/11 06:23:19;;;;;;;10.02;4.85;;;11.70;99.90;;;;;;5038308;28;20029;-73
2023/05/11 06:25:45;;;;;;;11.63;3.90;;;11.80;99.90;;;;;;5037900;28;20056;-74
2023/05/11 06:28:11;;;;;;;12.50;3.03;;;11.80;99.90;;;;;;5037052;28;20497;-73
2023/05/11 06:30:37;;;;;;;10.15;3.72;;;12.00;99.90;;;;;;5038279;28;20071;-73
2023/05/11 06:33:03;;;;;;;8.88;3.97;;;12.10;99.90;;;;;;5037930;28;20181;-74
2023/05/11 06:35:29;;;;;;;9.73;3.00;;;12.20;99.90;;;;;;5038209;28;20055;-73
2023/05/11 06:37:55;;;;;;;11.30;2.90;;;12.20;99.90;;;;;;5037929;28;20013;-73
2023/05/11 06:40:21;;;;;;;6.53;2.55;;;12.30;99.90;;;;;;5036773;28;20120;-73
2023/05/11 06:42:46;;;;;;;13.20;3.15;;;12.30;99.90;;;;;;5036646;28;20060;-75
2023/05/11 06:45:12;;;;;;;6.47;2.83;;;12.30;99.90;;;;;;5036933;28;20030;-72
2023/05/11 06:47:38;;;;;;;7.22;3.15;;;12.30;99.90;;;;;;5037859;28;20033;-71
2023/05/11 06:50:04;;;;;;;8.00;2.67;;;12.30;99.90;;;;;;5035576;28;20034;-71
2023/05/11 06:52:30;;;;;;;12.20;3.40;;;12.40;99.90;;;;;;5037648;28;20021;-72
2023/05/11 06:54:55;;;;;;;9.52;3.85;;;12.40;99.90;;;;;;5024896;28;20021;-72
2023/05/11 06:57:21;;;;;;;9.82;3.28;;;12.40;99.90;;;;;;5036331;28;20033;-72
2023/05/11 06:59:47;;;;;;;12.82;3.53;;;12.40;99.90;;;;;;5037421;28;20026;-72
2023/05/11 07:02:12;;;;;;;9.73;3.08;;;12.50;99.90;;;;;;5037686;28;20022;-72
2023/05/11 07:04:38;;;;;;;11.88;4.68;;;12.50;99.90;;;;;;5034427;28;20032;-72
2023/05/11 07:07:03;;;;;;;9.23;2.83;;;12.50;99.90;;;;;;5034369;28;20032;-71
2023/05/11 07:09:29;;;;;;;11.40;2.70;;;12.60;99.90;;;;;;5025949;28;20445;-71
2023/05/11 07:11:55;;;;;;;12.40;3.95;;;12.60;99.90;;;;;;5037286;28;20037;-72
2023/05/11 07:14:21;;;;;;;11.48;3.88;;;12.60;99.90;;;;;;5037095;28;20025;-72
2023/05/11 07:16:46;;;;;;;8.93;2.97;;;12.60;99.90;;;;;;5036955;28;20022;-73
2023/05/11 07:19:13;;;;;;;9.18;2.97;;;12.60;99.90;;;;;;5037211;28;20091;-72
2023/05/11 07:21:38;;;;;;;8.88;3.83;;;12.60;99.90;;;;;;5037189;28;20100;-72
2023/05/11 07:24:04;;;;;;;11.35;4.32;;;12.70;99.90;;;;;;5037107;28;20064;-72
2023/05/11 07:26:30;;;;;;;10.27;2.95;;;12.70;99.90;;;;;;5033926;28;20022;-72
2023/05/11 07:28:56;;;;;;;7.80;3.97;;;12.70;99.90;;;;;;5021100;28;20033;-71
2023/05/11 07:31:22;;;;;;;7.18;3.10;;;12.70;99.90;;;;;;5035608;28;20029;-71
2023/05/11 07:33:47;;;;;;;19.67;3.78;;;12.80;99.90;;;;;;5036800;28;20022;-71
2023/05/11 07:36:13;;;;;;;7.90;2.80;;;12.90;99.90;;;;;;5036771;28;20722;-71
2023/05/11 07:38:39;;;;;;;7.38;3.30;;;13.10;99.90;;;;;;5034870;28;20025;-70
2023/05/11 07:41:04;;;;;;;6.68;2.58;;;13.40;99.90;;;;;;5023303;28;20084;-71
2023/05/11 07:43:30;;;;;;;8.63;2.85;;;13.60;99.90;;;;;;5030805;28;20104;-72
2023/05/11 07:45:56;;;;;;;11.23;3.08;;;13.60;99.90;;;;;;5035616;28;20371;-72
2023/05/11 07:48:22;;;;;;;10.23;3.17;;;13.70;99.90;;;;;;5035142;28;20037;-72
2023/05/11 07:50:48;;;;;;;9.73;3.05;;;13.80;99.90;;;;;;5036296;28;20383;-70
2023/05/11 07:53:14;;;;;;;14.93;3.25;;;13.80;99.90;;;;;;5036681;28;20030;-70
2023/05/11 07:55:40;;;;;;;8.32;2.95;;;13.60;99.90;;;;;;5036659;28;20021;-70
2023/05/11 07:58:06;;;;;;;5.57;2.88;;;13.60;99.90;;;;;;5021938;28;20029;-71
2023/05/11 08:00:32;;;;;;;9.02;2.65;;;13.50;99.90;;;;;;5032833;28;20017;-72
2023/05/11 08:02:58;;;;;;;12.02;2.70;;;13.50;99.90;;;;;;5035212;28;20027;-72
2023/05/11 08:05:24;;;;;;;8.90;2.75;;;13.40;99.90;;;;;;5030461;28;20404;-72
2023/05/11 08:07:50;;;;;;;10.70;2.90;;;13.40;99.90;;;;;;5034189;28;20052;-72
2023/05/11 08:10:16;;;;;;;12.82;3.03;;;13.70;99.90;;;;;;5034917;28;20037;-70
2023/05/11 08:12:41;;;;;;;8.02;2.63;;;13.90;99.90;;;;;;5034793;28;20049;-73
2023/05/11 08:15:08;;;;;;;6.97;2.40;;;14.00;99.90;;;;;;5034638;28;20014;-73
2023/05/11 08:17:35;;;;;;;7.63;3.22;;;14.30;99.90;;;;;;5032467;28;20053;-71
2023/05/11 08:20:01;;;;;;;7.00;3.63;;;14.60;99.90;;;;;;5034375;28;20029;-72
2023/05/11 08:22:27;;;;;;;6.97;2.15;;;14.50;99.90;;;;;;5034455;28;20048;-73
2023/05/11 08:24:53;;;;;;;7.68;2.20;;;14.20;99.90;;;;;;5034923;28;20444;-73
2023/05/11 08:27:18;;;;;;;10.02;3.72;;;13.70;99.90;;;;;;5031767;28;20033;-72
2023/05/11 08:29:44;;;;;;;4.05;2.20;;;13.30;99.90;;;;;;5033106;28;20036;-72
2023/05/11 08:32:10;;;;;;;9.55;2.97;;;13.00;99.90;;;;;;5032506;28;20020;-71
2023/05/11 08:34:35;;;;;;;9.57;2.92;;;12.80;99.90;;;;;;5034842;28;20021;-73
2023/05/11 08:37:01;;;;;;;7.07;2.63;;;12.60;99.90;;;;;;5034367;28;20057;-73
2023/05/11 08:39:27;;;;;;;8.25;3.10;;;12.60;99.90;;;;;;5030945;28;20021;-73
2023/05/11 08:41:56;;;;;;;6.03;2.47;;;12.70;99.90;;;;;;5033635;28;20036;-73
2023/05/11 08:44:24;;;;;;;6.45;2.83;;;12.80;99.90;;;;;;5034692;28;20029;-72
2023/05/11 08:46:52;;;;;;;6.88;2.92;;;13.00;99.90;;;;;;5030211;28;20033;-73
2023/05/11 08:49:18;;;;;;;7.45;2.35;;;13.20;99.90;;;;;;5035333;28;20071;-73
2023/05/11 08:51:45;;;;;;;4.55;2.78;;;13.40;99.90;;;;;;5035536;28;20033;-73
2023/05/11 08:54:11;;;;;;;4.93;2.10;;;13.50;99.90;;;;;;5036797;28;20014;-72
2023/05/11 08:56:40;;;;;;;7.75;2.67;;;13.40;99.90;;;;;;5034771;28;20018;-73
2023/05/11 08:59:07;;;;;;;4.55;2.28;;;13.40;99.90;;;;;;5035086;28;20068;-72
2023/05/11 09:01:36;;;;;;;9.63;2.83;;;13.40;99.90;;;;;;5038629;28;20171;-73
2023/05/11 09:04:02;;;;;;;3.47;2.47;;;13.30;99.90;;;;;;5036748;28;20029;-73
2023/05/11 09:06:29;;;;;;;8.88;2.10;;;13.20;99.90;;;;;;5037221;28;20512;-72
2023/05/11 09:08:56;;;;;;;6.38;2.33;;;13.20;99.90;;;;;;5037560;28;20049;-72
2023/05/11 09:11:23;;;;;;;8.82;2.75;;;13.30;99.90;;;;;;5036855;28;20034;-73
2023/05/11 09:13:50;;;;;;;3.92;2.92;;;13.60;99.90;;;;;;5038946;28;20075;-71
2023/05/11 09:16:16;;;;;;;8.35;2.15;;;14.00;99.90;;;;;;5039595;28;20504;-74
2023/05/11 09:18:49;;;;;;;5.18;2.35;;;14.20;99.90;;;;;;5039298;28;20041;-73
2023/05/11 09:21:14;;;;;;;11.43;2.45;;;14.50;99.90;;;;;;5039744;28;20573;-73
2023/05/11 09:23:40;;;;;;;6.85;2.28;;;14.60;99.90;;;;;;5038045;28;20049;-74
2023/05/11 09:26:18;;;;;;;12.60;2.80;;;14.50;99.90;;;;;;5038356;28;20048;-73
2023/05/11 09:28:49;;;;;;;6.28;2.45;;;14.40;99.90;;;;;;5037595;28;20013;-73
2023/05/11 09:31:42;;;;;;;10.60;3.80;;;14.10;99.90;;;;;;5038012;28;20057;-74
2023/05/11 09:34:19;;;;;;;6.47;2.25;;;14.10;99.90;;;;;;5031542;28;20029;-73
2023/05/11 09:36:50;;;;;;;13.60;2.50;;;14.30;99.90;;;;;;5027409;28;20021;-73
2023/05/11 09:39:19;;;;;;;8.90;2.22;;;14.60;99.90;;;;;;5033999;28;20433;-72
2023/05/11 09:41:45;;;;;;;5.50;2.83;;;14.80;99.90;;;;;;5037624;28;20036;-74
2023/05/11 09:44:13;;;;;;;5.35;2.00;;;15.10;99.90;;;;;;5036857;28;20025;-73
2023/05/11 09:46:40;;;;;;;6.88;2.00;;;15.30;99.90;;;;;;5035361;28;20025;-72
2023/05/11 09:49:06;;;;;;;4.72;2.10;;;15.70;99.90;;;;;;5037345;28;20100;-73
2023/05/11 09:51:39;;;;;;;12.70;2.33;;;15.90;99.90;;;;;;5037733;28;20104;-72
2023/05/11 09:54:21;;;;;;;6.07;2.03;;;15.80;99.90;;;;;;5035443;28;20026;-74
2023/05/11 09:56:59;;;;;;;4.45;2.05;;;15.90;99.90;;;;;;5036871;28;20021;-74
2023/05/11 09:59:41;;;;;;;3.58;1.63;;;15.80;99.90;;;;;;5034489;28;20021;-73
2023/05/11 10:02:26;;;;;;;5.55;1.95;;;15.50;99.90;;;;;;5036890;28;20533;-74
2023/05/11 10:04:54;;;;;;;8.45;2.72;;;15.20;99.90;;;;;;5034535;28;20018;-74
2023/05/11 10:07:26;;;;;;;6.63;1.92;;;15.00;99.90;;;;;;5036745;28;20053;-72
2023/05/11 10:09:54;;;;;;;7.38;3.85;;;14.80;99.90;;;;;;5047200;28;20034;-72
2023/05/11 10:12:22;;;;;;;4.90;2.17;;;14.80;99.90;;;;;;5037139;28;20017;-72
2023/05/11 10:14:51;;;;;;;6.93;2.17;;;15.00;99.90;;;;;;5034868;28;20018;-73
2023/05/11 10:17:17;;;;;;;2.92;2.03;;;15.10;99.90;;;;;;5034027;28;20049;-71
2023/05/11 10:19:44;;;;;;;2.95;1.83;;;15.40;99.90;;;;;;5033863;28;20193;-71
2023/05/11 10:22:11;;;;;;;6.10;1.70;;;16.00;99.90;;;;;;5035426;28;20108;-71
2023/05/11 10:24:38;;;;;;;5.65;2.15;;;16.40;99.90;;;;;;5035411;28;20024;-73
2023/05/11 10:27:04;;;;;;;2.38;1.40;;;16.30;99.90;;;;;;5033435;28;20029;-71
2023/05/11 10:29:32;;;;;;;3.70;1.88;;;16.00;99.90;;;;;;5036636;28;20504;-72
2023/05/11 10:31:58;;;;;;;7.45;2.08;;;15.90;99.90;;;;;;5036389;28;20042;-73
2023/05/11 10:34:27;;;;;;;5.78;2.20;;;16.20;99.90;;;;;;5035455;28;20025;-71
2023/05/11 10:36:56;;;;;;;4.45;2.25;;;16.50;99.90;;;;;;5036261;28;20040;-73
2023/05/11 10:39:22;;;;;;;3.75;2.13;;;16.50;99.90;;;;;;5033205;28;20018;-73
2023/05/11 10:42:13;;;;;;;3.47;1.63;;;16.50;99.90;;;;;;5036186;28;20032;-72
2023/05/11 10:45:02;;;;;;;2.70;1.35;;;16.60;99.90;;;;;;5033424;28;20095;-72
2023/05/11 10:47:46;;;;;;;5.72;2.05;;;16.70;99.90;;;;;;5047088;28;20033;-72
2023/05/11 10:50:37;;;;;;;9.10;1.88;;;16.80;99.90;;;;;;5035121;28;20029;-72
2023/05/11 10:53:14;;;;;;;;;;;17.00;99.90;;;;;;5035227;28;20083;-74
2023/05/11 10:56:13;;;;;;;4.38;1.95;;;17.30;99.90;;;;;;5034888;28;19912;-72
2023/05/11 10:58:48;;;;;;;3.50;1.40;;;17.30;99.90;;;;;;5033927;28;20021;-72
2023/05/11 11:01:36;;;;;;;4.90;1.40;;;17.50;99.90;;;;;;5036284;28;20076;-74
2023/05/11 11:04:07;;;;;;;6.55;1.85;;;17.20;99.90;;;;;;5035073;28;20033;-74
2023/05/11 11:06:34;;;;;;;7.90;2.13;;;17.00;99.90;;;;;;5034558;28;20021;-72
2023/05/11 11:09:04;;;;;;;4.05;1.38;;;16.80;99.90;;;;;;5035855;28;20044;-72
2023/05/11 11:11:49;;;;;;;4.20;1.80;;;16.60;99.90;;;;;;5035668;28;20569;-73
2023/05/11 11:14:18;;;;;;;3.95;1.73;;;16.40;99.90;;;;;;5031401;28;20026;-71
2023/05/11 11:17:14;;;;;;;3.67;1.73;;;16.20;99.90;;;;;;5031018;28;20444;-73
2023/05/11 11:19:40;;;;;;;3.33;1.50;;;16.00;99.90;;;;;;5034008;28;20490;-72
2023/05/11 11:22:39;;;;;;;5.55;1.75;;;15.60;99.90;;;;;;5029539;28;20434;-74
2023/05/11 11:25:13;;;;;;;6.32;1.90;;;15.30;99.90;;;;;;5030728;28;20092;-74
2023/05/11 11:27:48;;;;;;;7.88;2.17;;;14.70;99.90;;;;;;5033906;28;20555;-73
2023/05/11 11:30:24;;;;;;;3.53;1.75;;;14.00;99.90;;;;;;5031916;28;20044;-75
2023/05/11 11:32:52;;;;;;;4.30;1.70;;;13.70;99.90;;;;;;5033876;28;20045;-74
2023/05/11 11:35:43;;;;;;;5.95;2.00;;;13.60;99.90;;;;;;5034779;28;20028;-75
2023/05/11 11:38:11;;;;;;;5.65;2.38;;;13.80;99.90;;;;;;5029612;28;20022;-74
2023/05/11 11:40:38;;;;;;;3.63;1.98;;;14.40;99.90;;;;;;5035423;28;20025;-74
2023/05/11 11:43:18;;;;;;;8.38;2.20;;;14.80;99.90;;;;;;5034761;28;20029;-75
2023/05/11 11:45:51;;;;;;;5.80;2.00;;;15.30;99.90;;;;;;5035255;28;20391;-74
2023/05/11 11:48:28;;;;;;;6.25;2.13;;;15.70;99.90;;;;;;5034244;28;20064;-75
2023/05/11 11:51:04;;;;;;;2.17;1.50;;;16.00;99.90;;;;;;5035366;28;20040;-74
2023/05/11 11:53:36;;;;;;;3.88;1.65;;;16.10;99.90;;;;;;5047169;28;20400;-74
2023/05/11 11:56:03;;;;;;;5.40;1.73;;;16.10;99.90;;;;;;5034181;28;20026;-75
2023/05/11 11:58:41;;;;;;;4.75;1.55;;;16.00;99.90;;;;;;5033681;28;20144;-75
2023/05/11 12:01:28;;;;;;;2.88;1.70;;;15.80;99.90;;;;;;5033496;28;20108;-74
2023/05/11 12:04:03;;;;;;;2.55;1.60;;;15.60;99.90;;;;;;5030045;28;20040;-76
2023/05/11 12:06:39;;;;;;;2.60;1.50;;;15.40;99.90;;;;;;5036651;28;20029;-76
2023/05/11 12:09:06;;;;;;;1.65;1.30;;;15.20;99.90;;;;;;5035313;28;20049;-74
2023/05/11 12:11:32;;;;;;;27.35;4.22;;;15.00;99.90;;;;;;5036830;28;20038;-76
2023/05/11 12:13:59;;;;;;;5.82;2.10;;;14.60;99.90;;;;;;5036303;28;20089;-75
2023/05/11 12:16:25;;;;;;;4.72;2.40;;;14.20;99.90;;;;;;5035524;28;20079;-74
2023/05/11 12:18:58;;;;;;;1.73;1.55;;;14.00;99.90;;;;;;5036241;28;20041;-75
2023/05/11 12:21:26;;;;;;;3.17;2.08;;;13.90;99.90;;;;;;5034908;28;20026;-74
2023/05/11 12:24:10;;;;;;;5.10;2.00;;;14.10;99.90;;;;;;5038436;28;20021;-76
2023/05/11 12:26:36;;;;;;;6.22;2.65;;;14.50;99.90;;;;;;5039486;28;20061;-75
2023/05/11 12:29:06;;;;;;;4.88;1.90;;;14.70;99.90;;;;;;5039022;28;20017;-75
2023/05/11 12:31:39;;;;;;;5.93;3.28;;;15.00;99.90;;;;;;5040114;28;20429;-75
2023/05/11 12:34:06;;;;;;;6.18;2.10;;;15.00;99.90;;;;;;5040463;28;20014;-74
2023/05/11 12:36:33;;;;;;;4.78;1.95;;;15.20;99.90;;;;;;5040336;28;20018;-75
2023/05/11 12:38:59;;;;;;;4.40;2.00;;;15.50;99.90;;;;;;5040386;28;20021;-72
2023/05/11 12:41:26;;;;;;;2.95;1.70;;;15.90;99.90;;;;;;5038528;28;20469;-73
2023/05/11 12:43:53;;;;;;;1.85;1.40;;;16.30;99.90;;;;;;5040011;28;20022;-73
2023/05/11 12:46:20;;;;;;;5.90;1.85;;;16.30;99.90;;;;;;5040057;28;20034;-74
2023/05/11 12:48:47;;;;;;;5.10;1.80;;;16.30;99.90;;;;;;5039949;28;20104;-74
2023/05/11 12:51:13;;;;;;;5.47;1.50;;;16.20;99.90;;;;;;5040130;28;20026;-73